createdAt,value
2022-11-26T00:00:06.403Z,958.38
2022-11-26T00:00:17.407Z,958.38
2022-11-26T00:00:28.409Z,958.38
2022-11-26T00:00:40.414Z,958.38
2022-11-26T00:00:51.413Z,958.39
2022-11-26T00:01:03.417Z,958.41
2022-11-26T00:01:14.423Z,958.41
2022-11-26T00:01:25.431Z,958.41
2022-11-26T00:01:36.435Z,958.41
2022-11-26T00:01:47.474Z,958.41
2022-11-26T00:01:58.602Z,958.41
2022-11-26T00:02:09.442Z,958.42
2022-11-26T00:02:20.573Z,958.42
2022-11-26T00:02:31.565Z,958.41
2022-11-26T00:02:42.714Z,958.42
2022-11-26T00:02:53.723Z,958.42
2022-11-26T00:03:05.571Z,958.42
2022-11-26T00:03:16.455Z,958.41
2022-11-26T00:03:27.476Z,958.42
2022-11-26T00:03:38.486Z,958.42
2022-11-26T00:03:49.482Z,958.42
2022-11-26T00:04:00.486Z,958.43
2022-11-26T00:04:12.389Z,958.44
2022-11-26T00:04:23.393Z,958.44
2022-11-26T00:04:34.400Z,958.45
2022-11-26T00:04:45.417Z,958.45
2022-11-26T00:04:56.437Z,958.45
2022-11-26T00:05:08.438Z,958.46
2022-11-26T00:05:19.441Z,958.46
2022-11-26T00:05:31.446Z,958.47
2022-11-26T00:05:43.452Z,958.47
2022-11-26T00:05:55.459Z,958.47
2022-11-26T00:06:07.453Z,958.48
2022-11-26T00:06:18.474Z,958.48
2022-11-26T00:06:30.462Z,958.48
2022-11-26T00:06:41.481Z,958.49
2022-11-26T00:06:52.478Z,958.50
2022-11-26T00:07:04.484Z,958.52
2022-11-26T00:07:16.453Z,958.51
2022-11-26T00:07:27.509Z,958.51
2022-11-26T00:07:38.510Z,958.52
2022-11-26T00:07:50.477Z,958.52
2022-11-26T00:08:01.446Z,958.52
2022-11-26T00:08:12.449Z,958.52
2022-11-26T00:08:23.452Z,958.52
2022-11-26T00:08:35.461Z,958.53
2022-11-26T00:08:46.477Z,958.52
2022-11-26T00:08:58.485Z,958.52
2022-11-26T00:09:10.404Z,958.53
2022-11-26T00:09:22.401Z,958.54
2022-11-26T00:09:33.407Z,958.55
2022-11-26T00:09:44.409Z,958.54
2022-11-26T00:09:55.415Z,958.54
2022-11-26T00:10:07.419Z,958.54
2022-11-26T00:10:18.434Z,958.55
2022-11-26T00:10:29.461Z,958.55
2022-11-26T00:10:40.475Z,958.55
2022-11-26T00:10:51.484Z,958.56
2022-11-26T00:11:02.391Z,958.55
2022-11-26T00:11:14.398Z,958.54
2022-11-26T00:11:25.402Z,958.54
2022-11-26T00:11:37.406Z,958.56
2022-11-26T00:11:48.411Z,958.56
2022-11-26T00:11:59.423Z,958.55
2022-11-26T00:12:10.428Z,958.57
2022-11-26T00:12:21.440Z,958.56
2022-11-26T00:12:32.443Z,958.57
2022-11-26T00:12:43.474Z,958.58
2022-11-26T00:12:54.481Z,958.59
2022-11-26T00:13:05.486Z,958.57
2022-11-26T00:13:17.389Z,958.56
2022-11-26T00:13:28.390Z,958.56
2022-11-26T00:13:39.398Z,958.58
2022-11-26T00:13:50.401Z,958.58
2022-11-26T00:14:01.406Z,958.58
2022-11-26T00:14:12.410Z,958.59
2022-11-26T00:14:24.416Z,958.59
2022-11-26T00:14:35.652Z,958.60
2022-11-26T00:14:46.452Z,958.58
2022-11-26T00:14:57.456Z,958.57
2022-11-26T00:15:09.456Z,958.57
2022-11-26T00:15:20.460Z,958.57
2022-11-26T00:15:31.473Z,958.58
2022-11-26T00:15:42.484Z,958.58
2022-11-26T00:15:54.484Z,958.58
2022-11-26T00:16:06.413Z,958.59
2022-11-26T00:16:17.440Z,958.58
2022-11-26T00:16:28.467Z,958.60
2022-11-26T00:16:39.476Z,958.59
2022-11-26T00:16:50.551Z,958.59
2022-11-26T00:17:01.523Z,958.59
2022-11-26T00:17:13.408Z,958.60
2022-11-26T00:17:24.421Z,958.60
2022-11-26T00:17:36.424Z,958.59
2022-11-26T00:17:47.442Z,958.58
2022-11-26T00:17:58.441Z,958.58
2022-11-26T00:18:10.443Z,958.60
2022-11-26T00:18:22.446Z,958.59
2022-11-26T00:18:33.454Z,958.60
2022-11-26T00:18:44.465Z,958.60
2022-11-26T00:18:55.479Z,958.59
2022-11-26T00:19:06.481Z,958.59
2022-11-26T00:19:18.395Z,958.60
2022-11-26T00:19:29.402Z,958.60
2022-11-26T00:19:40.403Z,958.60
2022-11-26T00:19:52.400Z,958.58
2022-11-26T00:20:04.404Z,958.59
2022-11-26T00:20:15.409Z,958.59
2022-11-26T00:20:27.418Z,958.60
2022-11-26T00:20:38.425Z,958.60
2022-11-26T00:20:49.431Z,958.59
2022-11-26T00:21:01.443Z,958.60
2022-11-26T00:21:13.441Z,958.60
2022-11-26T00:21:24.464Z,958.60
2022-11-26T00:21:35.461Z,958.60
2022-11-26T00:21:46.459Z,958.59
2022-11-26T00:21:57.466Z,958.58
2022-11-26T00:22:09.465Z,958.59
2022-11-26T00:22:21.466Z,958.59
2022-11-26T00:22:32.479Z,958.59
2022-11-26T00:22:43.394Z,958.59
2022-11-26T00:22:54.504Z,958.60
2022-11-26T00:23:06.407Z,958.60
2022-11-26T00:23:17.407Z,958.59
2022-11-26T00:23:28.428Z,958.59
2022-11-26T00:23:39.430Z,958.60
2022-11-26T00:23:50.438Z,958.60
2022-11-26T00:24:01.452Z,958.61
2022-11-26T00:24:12.457Z,958.61
2022-11-26T00:24:24.399Z,958.61
2022-11-26T00:24:35.605Z,958.62
2022-11-26T00:24:46.438Z,958.63
2022-11-26T00:24:57.443Z,958.64
2022-11-26T00:25:09.442Z,958.65
2022-11-26T00:25:20.446Z,958.65
2022-11-26T00:25:32.451Z,958.64
2022-11-26T00:25:44.456Z,958.65
2022-11-26T00:25:55.459Z,958.66
2022-11-26T00:26:07.464Z,958.65
2022-11-26T00:26:19.458Z,958.66
2022-11-26T00:26:30.465Z,958.66
2022-11-26T00:26:42.463Z,958.66
2022-11-26T00:26:53.466Z,958.66
2022-11-26T00:27:05.471Z,958.67
2022-11-26T00:27:17.481Z,958.67
2022-11-26T00:27:29.480Z,958.67
2022-11-26T00:27:41.386Z,958.67
2022-11-26T00:27:52.405Z,958.67
2022-11-26T00:28:03.407Z,958.67
2022-11-26T00:28:14.422Z,958.66
2022-11-26T00:28:25.428Z,958.67
2022-11-26T00:28:37.460Z,958.67
2022-11-26T00:28:48.470Z,958.67
2022-11-26T00:28:59.472Z,958.67
2022-11-26T00:29:10.481Z,958.68
2022-11-26T00:29:22.395Z,958.68
2022-11-26T00:29:33.402Z,958.68
2022-11-26T00:29:44.396Z,958.69
2022-11-26T00:29:56.408Z,958.69
2022-11-26T00:30:07.406Z,958.69
2022-11-26T00:30:18.429Z,958.69
2022-11-26T00:30:29.441Z,958.69
2022-11-26T00:30:40.453Z,958.68
2022-11-26T00:30:51.456Z,958.69
2022-11-26T00:31:02.470Z,958.68
2022-11-26T00:31:14.562Z,958.68
2022-11-26T00:31:25.486Z,958.69
2022-11-26T00:31:37.493Z,958.70
2022-11-26T00:31:48.505Z,958.69
2022-11-26T00:32:00.586Z,958.69
2022-11-26T00:32:12.515Z,958.70
2022-11-26T00:32:24.402Z,958.71
2022-11-26T00:32:35.415Z,958.71
2022-11-26T00:32:46.424Z,958.70
2022-11-26T00:32:57.449Z,958.70
2022-11-26T00:33:08.455Z,958.71
2022-11-26T00:33:19.468Z,958.71
2022-11-26T00:33:30.473Z,958.71
2022-11-26T00:33:41.475Z,958.71
2022-11-26T00:33:52.483Z,958.71
2022-11-26T00:34:04.400Z,958.71
2022-11-26T00:34:15.421Z,958.71
2022-11-26T00:34:26.456Z,958.72
2022-11-26T00:34:37.617Z,958.71
2022-11-26T00:34:48.393Z,958.72
2022-11-26T00:34:59.393Z,958.72
2022-11-26T00:35:10.409Z,958.73
2022-11-26T00:35:21.413Z,958.73
2022-11-26T00:35:32.423Z,958.72
2022-11-26T00:35:43.424Z,958.71
2022-11-26T00:35:54.434Z,958.71
2022-11-26T00:36:05.465Z,958.72
2022-11-26T00:36:16.479Z,958.72
2022-11-26T00:36:27.477Z,958.73
2022-11-26T00:36:39.398Z,958.72
2022-11-26T00:36:50.400Z,958.71
2022-11-26T00:37:02.404Z,958.72
2022-11-26T00:37:13.414Z,958.72
2022-11-26T00:37:25.414Z,958.73
2022-11-26T00:37:36.420Z,958.73
2022-11-26T00:37:47.424Z,958.72
2022-11-26T00:37:58.438Z,958.72
2022-11-26T00:38:09.442Z,958.73
2022-11-26T00:38:20.448Z,958.73
2022-11-26T00:38:31.456Z,958.72
2022-11-26T00:38:42.450Z,958.72
2022-11-26T00:38:54.459Z,958.72
2022-11-26T00:39:05.461Z,958.73
2022-11-26T00:39:17.480Z,958.73
2022-11-26T00:39:29.468Z,958.74
2022-11-26T00:39:41.468Z,958.74
2022-11-26T00:39:52.477Z,958.75
2022-11-26T00:40:03.485Z,958.76
2022-11-26T00:40:15.406Z,958.76
2022-11-26T00:40:26.410Z,958.76
2022-11-26T00:40:38.416Z,958.77
2022-11-26T00:40:50.419Z,958.76
2022-11-26T00:41:01.426Z,958.76
2022-11-26T00:41:12.429Z,958.75
2022-11-26T00:41:24.431Z,958.74
2022-11-26T00:41:35.448Z,958.74
2022-11-26T00:41:46.488Z,958.75
2022-11-26T00:41:58.476Z,958.75
2022-11-26T00:42:09.473Z,958.75
2022-11-26T00:42:20.481Z,958.75
2022-11-26T00:42:31.393Z,958.76
2022-11-26T00:42:42.399Z,958.77
2022-11-26T00:42:58.697Z,958.76
2022-11-26T00:43:06.390Z,958.76
2022-11-26T00:43:16.414Z,958.75
2022-11-26T00:43:27.406Z,958.74
2022-11-26T00:43:38.412Z,958.74
2022-11-26T00:43:49.415Z,958.75
2022-11-26T00:44:00.424Z,958.75
2022-11-26T00:44:12.435Z,958.76
2022-11-26T00:44:23.445Z,958.76
2022-11-26T00:44:34.462Z,958.75
2022-11-26T00:44:45.468Z,958.76
2022-11-26T00:44:56.474Z,958.77
2022-11-26T00:45:07.478Z,958.77
2022-11-26T00:45:18.507Z,958.76
2022-11-26T00:45:30.475Z,958.75
2022-11-26T00:45:41.511Z,958.72
2022-11-26T00:45:53.474Z,958.74
2022-11-26T00:46:04.541Z,958.73
2022-11-26T00:46:15.606Z,958.74
2022-11-26T00:46:27.418Z,958.74
2022-11-26T00:46:38.425Z,958.74
2022-11-26T00:46:49.432Z,958.75
2022-11-26T00:47:00.432Z,958.75
2022-11-26T00:47:11.440Z,958.75
2022-11-26T00:47:22.478Z,958.76
2022-11-26T00:47:33.468Z,958.76
2022-11-26T00:47:44.475Z,958.77
2022-11-26T00:47:55.489Z,958.77
2022-11-26T00:48:06.488Z,958.77
2022-11-26T00:48:18.386Z,958.77
2022-11-26T00:48:29.393Z,958.77
2022-11-26T00:48:41.392Z,958.77
2022-11-26T00:48:52.391Z,958.77
2022-11-26T00:49:03.399Z,958.78
2022-11-26T00:49:15.397Z,958.77
2022-11-26T00:49:26.401Z,958.77
2022-11-26T00:49:38.401Z,958.77
2022-11-26T00:49:49.410Z,958.78
2022-11-26T00:50:00.413Z,958.78
2022-11-26T00:50:11.423Z,958.79
2022-11-26T00:50:22.427Z,958.78
2022-11-26T00:50:33.431Z,958.78
2022-11-26T00:50:44.439Z,958.79
2022-11-26T00:50:56.446Z,958.79
2022-11-26T00:51:07.449Z,958.78
2022-11-26T00:51:19.446Z,958.79
2022-11-26T00:51:30.447Z,958.80
2022-11-26T00:51:42.455Z,958.79
2022-11-26T00:51:54.455Z,958.80
2022-11-26T00:52:05.457Z,958.79
2022-11-26T00:52:16.464Z,958.80
2022-11-26T00:52:27.475Z,958.81
2022-11-26T00:52:38.479Z,958.82
2022-11-26T00:52:50.403Z,958.79
2022-11-26T00:53:01.417Z,958.81
2022-11-26T00:53:12.417Z,958.82
2022-11-26T00:53:24.419Z,958.82
2022-11-26T00:53:35.435Z,958.81
2022-11-26T00:53:47.426Z,958.81
2022-11-26T00:53:58.431Z,958.83
2022-11-26T00:54:10.438Z,958.82
2022-11-26T00:54:21.437Z,958.81
2022-11-26T00:54:33.436Z,958.81
2022-11-26T00:54:45.437Z,958.81
2022-11-26T00:54:57.436Z,958.81
2022-11-26T00:55:08.455Z,958.81
2022-11-26T00:55:19.468Z,958.82
2022-11-26T00:55:30.475Z,958.83
2022-11-26T00:55:41.486Z,958.84
2022-11-26T00:55:53.385Z,958.85
2022-11-26T00:56:04.388Z,958.86
2022-11-26T00:56:15.392Z,958.86
2022-11-26T00:56:27.396Z,958.87
2022-11-26T00:56:38.407Z,958.87
2022-11-26T00:56:49.398Z,958.87
2022-11-26T00:57:00.404Z,958.87
2022-11-26T00:57:12.404Z,958.88
2022-11-26T00:57:23.410Z,958.89
2022-11-26T00:57:35.430Z,958.89
2022-11-26T00:57:46.444Z,958.90
2022-11-26T00:57:57.439Z,958.90
2022-11-26T00:58:08.443Z,958.91
2022-11-26T00:58:19.446Z,958.91
2022-11-26T00:58:30.455Z,958.92
2022-11-26T00:58:41.469Z,958.92
2022-11-26T00:58:52.470Z,958.93
2022-11-26T00:59:04.394Z,958.93
2022-11-26T00:59:15.399Z,958.94
2022-11-26T00:59:26.398Z,958.94
2022-11-26T00:59:38.396Z,958.96
2022-11-26T00:59:50.402Z,958.96
2022-11-26T01:00:01.407Z,958.91
2022-11-26T01:00:13.405Z,958.90
2022-11-26T01:00:24.405Z,958.91
2022-11-26T01:00:35.657Z,958.92
2022-11-26T01:00:46.562Z,958.93
2022-11-26T01:00:58.592Z,958.92
2022-11-26T01:01:09.516Z,958.92
2022-11-26T01:01:21.594Z,958.92
2022-11-26T01:01:32.568Z,958.92
2022-11-26T01:01:44.464Z,958.93
2022-11-26T01:01:55.524Z,958.93
2022-11-26T01:02:07.481Z,958.94
2022-11-26T01:02:18.558Z,958.94
2022-11-26T01:02:30.572Z,958.94
2022-11-26T01:02:42.516Z,958.95
2022-11-26T01:02:54.415Z,958.95
2022-11-26T01:03:05.446Z,958.94
2022-11-26T01:03:16.468Z,958.95
2022-11-26T01:03:28.467Z,958.97
2022-11-26T01:03:39.475Z,958.96
2022-11-26T01:03:50.480Z,958.96
2022-11-26T01:04:01.485Z,958.93
2022-11-26T01:04:12.387Z,958.94
2022-11-26T01:04:23.396Z,958.95
2022-11-26T01:04:34.482Z,958.95
2022-11-26T01:04:45.452Z,958.96
2022-11-26T01:04:57.451Z,958.96
2022-11-26T01:05:08.458Z,958.96
2022-11-26T01:05:19.458Z,958.96
2022-11-26T01:05:30.477Z,958.95
2022-11-26T01:05:41.481Z,958.95
2022-11-26T01:05:53.392Z,958.96
2022-11-26T01:06:04.404Z,958.96
2022-11-26T01:06:16.412Z,958.97
2022-11-26T01:06:27.416Z,958.96
2022-11-26T01:06:38.424Z,958.97
2022-11-26T01:06:49.421Z,958.96
2022-11-26T01:07:00.436Z,958.97
2022-11-26T01:07:11.492Z,958.98
2022-11-26T01:07:22.551Z,958.98
2022-11-26T01:07:34.536Z,958.98
2022-11-26T01:07:46.449Z,958.98
2022-11-26T01:07:57.498Z,958.98
2022-11-26T01:08:08.471Z,958.97
2022-11-26T01:08:19.473Z,958.98
2022-11-26T01:08:30.484Z,958.98
2022-11-26T01:08:42.400Z,958.99
2022-11-26T01:08:53.410Z,958.99
2022-11-26T01:09:04.428Z,958.99
2022-11-26T01:09:15.436Z,959.00
2022-11-26T01:09:27.443Z,959.00
2022-11-26T01:09:38.444Z,959.01
2022-11-26T01:09:49.453Z,959.00
2022-11-26T01:10:00.474Z,959.01
2022-11-26T01:10:11.466Z,959.02
2022-11-26T01:10:22.477Z,959.02
2022-11-26T01:10:33.478Z,959.03
2022-11-26T01:10:44.391Z,959.03
2022-11-26T01:10:55.399Z,959.04
2022-11-26T01:11:07.404Z,959.04
2022-11-26T01:11:18.399Z,959.04
2022-11-26T01:11:29.402Z,959.05
2022-11-26T01:11:40.415Z,959.06
2022-11-26T01:11:54.251Z,959.05
2022-11-26T01:12:02.441Z,959.05
2022-11-26T01:12:14.437Z,959.06
2022-11-26T01:12:26.440Z,959.06
2022-11-26T01:12:37.451Z,959.07
2022-11-26T01:12:48.451Z,959.06
2022-11-26T01:13:00.454Z,959.06
2022-11-26T01:13:11.467Z,959.07
2022-11-26T01:13:22.479Z,959.08
2022-11-26T01:13:33.471Z,959.08
2022-11-26T01:13:45.478Z,959.07
2022-11-26T01:13:57.403Z,959.07
2022-11-26T01:14:09.409Z,959.08
2022-11-26T01:14:20.422Z,959.07
2022-11-26T01:14:31.429Z,959.08
2022-11-26T01:14:42.442Z,959.08
2022-11-26T01:14:53.454Z,959.08
2022-11-26T01:15:05.466Z,959.07
2022-11-26T01:15:17.399Z,959.08
2022-11-26T01:15:28.414Z,959.09
2022-11-26T01:15:40.416Z,959.09
2022-11-26T01:15:51.430Z,959.11
2022-11-26T01:16:02.515Z,959.10
2022-11-26T01:16:14.488Z,959.10
2022-11-26T01:16:25.611Z,959.10
2022-11-26T01:16:37.433Z,959.10
2022-11-26T01:16:48.584Z,959.10
2022-11-26T01:16:59.584Z,959.10
2022-11-26T01:17:11.461Z,959.11
2022-11-26T01:17:22.469Z,959.11
2022-11-26T01:17:33.502Z,959.11
2022-11-26T01:17:45.393Z,959.12
2022-11-26T01:17:56.396Z,959.12
2022-11-26T01:18:08.412Z,959.12
2022-11-26T01:18:19.423Z,959.11
2022-11-26T01:18:30.425Z,959.11
2022-11-26T01:18:41.441Z,959.11
2022-11-26T01:18:52.450Z,959.13
2022-11-26T01:19:04.407Z,959.15
2022-11-26T01:19:15.431Z,959.14
2022-11-26T01:19:26.437Z,959.13
2022-11-26T01:19:37.452Z,959.14
2022-11-26T01:19:48.457Z,959.14
2022-11-26T01:19:59.471Z,959.14
2022-11-26T01:20:10.476Z,959.14
2022-11-26T01:20:25.208Z,959.15
2022-11-26T01:20:33.474Z,959.14
2022-11-26T01:20:44.494Z,959.14
2022-11-26T01:20:56.414Z,959.15
2022-11-26T01:21:07.416Z,959.13
2022-11-26T01:21:19.423Z,959.16
2022-11-26T01:21:30.429Z,959.16
2022-11-26T01:21:41.438Z,959.16
2022-11-26T01:21:52.441Z,959.16
2022-11-26T01:22:03.448Z,959.18
2022-11-26T01:22:14.451Z,959.18
2022-11-26T01:22:25.459Z,959.19
2022-11-26T01:22:36.475Z,959.20
2022-11-26T01:22:48.477Z,959.22
2022-11-26T01:22:59.477Z,959.21
2022-11-26T01:23:11.500Z,959.21
2022-11-26T01:23:23.414Z,959.22
2022-11-26T01:23:34.423Z,959.21
2022-11-26T01:23:45.430Z,959.23
2022-11-26T01:23:57.430Z,959.23
2022-11-26T01:24:08.443Z,959.24
2022-11-26T01:24:19.479Z,959.24
2022-11-26T01:24:31.387Z,959.25
2022-11-26T01:24:42.397Z,959.25
2022-11-26T01:24:53.400Z,959.27
2022-11-26T01:25:05.410Z,959.27
2022-11-26T01:25:16.410Z,959.27
2022-11-26T01:25:28.416Z,959.28
2022-11-26T01:25:39.427Z,959.27
2022-11-26T01:25:50.436Z,959.27
2022-11-26T01:26:06.216Z,959.29
2022-11-26T01:26:14.464Z,959.29
2022-11-26T01:26:24.470Z,959.29
2022-11-26T01:26:35.481Z,959.29
2022-11-26T01:26:47.481Z,959.30
2022-11-26T01:26:59.388Z,959.29
2022-11-26T01:27:10.382Z,959.30
2022-11-26T01:27:21.482Z,959.29
2022-11-26T01:27:32.391Z,959.30
2022-11-26T01:27:43.395Z,959.28
2022-11-26T01:27:54.399Z,959.30
2022-11-26T01:28:05.401Z,959.29
2022-11-26T01:28:16.438Z,959.30
2022-11-26T01:28:27.435Z,959.30
2022-11-26T01:28:38.438Z,959.31
2022-11-26T01:28:49.443Z,959.32
2022-11-26T01:29:00.457Z,959.30
2022-11-26T01:29:11.478Z,959.31
2022-11-26T01:29:23.471Z,959.31
2022-11-26T01:29:34.387Z,959.32
2022-11-26T01:29:45.396Z,959.31
2022-11-26T01:29:56.410Z,959.33
2022-11-26T01:30:07.413Z,959.32
2022-11-26T01:30:18.422Z,959.32
2022-11-26T01:30:29.427Z,959.33
2022-11-26T01:30:40.431Z,959.33
2022-11-26T01:30:52.432Z,959.34
2022-11-26T01:31:03.438Z,959.33
2022-11-26T01:31:14.531Z,959.33
2022-11-26T01:31:26.511Z,959.33
2022-11-26T01:31:37.519Z,959.33
2022-11-26T01:31:49.454Z,959.32
2022-11-26T01:32:00.567Z,959.33
2022-11-26T01:32:12.430Z,959.34
2022-11-26T01:32:28.079Z,959.34
2022-11-26T01:32:36.434Z,959.34
2022-11-26T01:32:47.417Z,959.35
2022-11-26T01:32:58.420Z,959.35
2022-11-26T01:33:09.425Z,959.35
2022-11-26T01:33:21.451Z,959.35
2022-11-26T01:33:32.463Z,959.35
2022-11-26T01:33:43.467Z,959.34
2022-11-26T01:33:54.474Z,959.34
2022-11-26T01:34:06.471Z,959.35
2022-11-26T01:34:17.481Z,959.36
2022-11-26T01:34:29.398Z,959.36
2022-11-26T01:34:40.717Z,959.37
2022-11-26T01:34:51.450Z,959.36
2022-11-26T01:35:02.455Z,959.37
2022-11-26T01:35:14.462Z,959.37
2022-11-26T01:35:25.477Z,959.39
2022-11-26T01:35:36.477Z,959.37
2022-11-26T01:35:48.482Z,959.38
2022-11-26T01:36:00.398Z,959.37
2022-11-26T01:36:11.404Z,959.36
2022-11-26T01:36:22.409Z,959.37
2022-11-26T01:36:33.420Z,959.37
2022-11-26T01:36:44.427Z,959.39
2022-11-26T01:36:55.428Z,959.38
2022-11-26T01:37:06.431Z,959.39
2022-11-26T01:37:18.452Z,959.40
2022-11-26T01:37:29.463Z,959.40
2022-11-26T01:37:40.467Z,959.41
2022-11-26T01:37:51.476Z,959.42
2022-11-26T01:38:02.485Z,959.42
2022-11-26T01:38:14.410Z,959.42
2022-11-26T01:38:25.415Z,959.43
2022-11-26T01:38:37.415Z,959.42
2022-11-26T01:38:49.423Z,959.42
2022-11-26T01:39:01.429Z,959.43
2022-11-26T01:39:12.430Z,959.43
2022-11-26T01:39:24.427Z,959.44
2022-11-26T01:39:36.431Z,959.43
2022-11-26T01:39:47.440Z,959.42
2022-11-26T01:39:59.445Z,959.42
2022-11-26T01:40:10.465Z,959.43
2022-11-26T01:40:22.467Z,959.43
2022-11-26T01:40:34.474Z,959.44
2022-11-26T01:40:46.397Z,959.45
2022-11-26T01:40:57.402Z,959.46
2022-11-26T01:41:08.403Z,959.46
2022-11-26T01:41:19.413Z,959.46
2022-11-26T01:41:31.422Z,959.44
2022-11-26T01:41:42.427Z,959.45
2022-11-26T01:41:53.436Z,959.46
2022-11-26T01:42:04.443Z,959.47
2022-11-26T01:42:16.448Z,959.47
2022-11-26T01:42:27.444Z,959.47
2022-11-26T01:42:39.444Z,959.47
2022-11-26T01:42:50.450Z,959.47
2022-11-26T01:43:01.465Z,959.48
2022-11-26T01:43:12.488Z,959.48
2022-11-26T01:43:24.392Z,959.49
2022-11-26T01:43:35.396Z,959.48
2022-11-26T01:43:46.403Z,959.48
2022-11-26T01:43:57.407Z,959.49
2022-11-26T01:44:09.408Z,959.50
2022-11-26T01:44:21.415Z,959.51
2022-11-26T01:44:32.424Z,959.53
2022-11-26T01:44:44.419Z,959.50
2022-11-26T01:44:55.423Z,959.50
2022-11-26T01:45:06.426Z,959.52
2022-11-26T01:45:17.430Z,959.50
2022-11-26T01:45:28.481Z,959.50
2022-11-26T01:45:39.500Z,959.50
2022-11-26T01:45:50.539Z,959.47
2022-11-26T01:46:02.445Z,959.48
2022-11-26T01:46:13.450Z,959.50
2022-11-26T01:46:25.426Z,959.51
2022-11-26T01:46:37.431Z,959.51
2022-11-26T01:46:48.446Z,959.51
2022-11-26T01:47:00.446Z,959.52
2022-11-26T01:47:12.453Z,959.52
2022-11-26T01:47:23.463Z,959.50
2022-11-26T01:47:34.467Z,959.51
2022-11-26T01:47:45.493Z,959.50
2022-11-26T01:47:57.482Z,959.50
2022-11-26T01:48:09.479Z,959.49
2022-11-26T01:48:21.497Z,959.49
2022-11-26T01:48:33.409Z,959.50
2022-11-26T01:48:44.413Z,959.50
2022-11-26T01:48:56.411Z,959.50
2022-11-26T01:49:07.417Z,959.49
2022-11-26T01:49:19.421Z,959.48
2022-11-26T01:49:30.423Z,959.49
2022-11-26T01:49:41.431Z,959.48
2022-11-26T01:49:52.435Z,959.48
2022-11-26T01:50:04.440Z,959.48
2022-11-26T01:50:15.450Z,959.48
2022-11-26T01:50:27.449Z,959.47
2022-11-26T01:50:39.457Z,959.47
2022-11-26T01:50:50.455Z,959.47
2022-11-26T01:51:02.457Z,959.47
2022-11-26T01:51:14.458Z,959.47
2022-11-26T01:51:26.465Z,959.46
2022-11-26T01:51:38.461Z,959.47
2022-11-26T01:51:49.465Z,959.47
2022-11-26T01:52:00.468Z,959.47
2022-11-26T01:52:11.384Z,959.48
2022-11-26T01:52:22.389Z,959.48
2022-11-26T01:52:34.394Z,959.49
2022-11-26T01:52:46.395Z,959.48
2022-11-26T01:52:57.411Z,959.49
2022-11-26T01:53:08.489Z,959.50
2022-11-26T01:53:19.493Z,959.51
2022-11-26T01:53:31.401Z,959.51
2022-11-26T01:53:42.418Z,959.52
2022-11-26T01:53:53.442Z,959.51
2022-11-26T01:54:04.444Z,959.52
2022-11-26T01:54:16.444Z,959.52
2022-11-26T01:54:27.449Z,959.53
2022-11-26T01:54:38.884Z,959.53
2022-11-26T01:54:49.467Z,959.54
2022-11-26T01:55:00.474Z,959.53
2022-11-26T01:55:12.473Z,959.54
2022-11-26T01:55:23.475Z,959.53
2022-11-26T01:55:35.399Z,959.53
2022-11-26T01:55:46.410Z,959.55
2022-11-26T01:55:58.409Z,959.56
2022-11-26T01:56:09.409Z,959.56
2022-11-26T01:56:20.412Z,959.54
2022-11-26T01:56:31.424Z,959.54
2022-11-26T01:56:43.440Z,959.56
2022-11-26T01:56:54.432Z,959.57
2022-11-26T01:57:05.441Z,959.55
2022-11-26T01:57:17.435Z,959.56
2022-11-26T01:57:29.436Z,959.57
2022-11-26T01:57:40.446Z,959.57
2022-11-26T01:57:52.477Z,959.56
2022-11-26T01:58:03.471Z,959.57
2022-11-26T01:58:14.471Z,959.57
2022-11-26T01:58:25.491Z,959.57
2022-11-26T01:58:40.085Z,959.58
2022-11-26T01:58:48.449Z,959.58
2022-11-26T01:58:59.453Z,959.59
2022-11-26T01:59:11.457Z,959.59
2022-11-26T01:59:23.461Z,959.59
2022-11-26T01:59:35.458Z,959.59
2022-11-26T01:59:47.465Z,959.60
2022-11-26T01:59:58.464Z,959.60
2022-11-26T02:00:09.468Z,959.60
2022-11-26T02:00:20.471Z,959.60
2022-11-26T02:00:32.482Z,959.61
2022-11-26T02:00:43.446Z,959.61
2022-11-26T02:00:54.468Z,959.60
2022-11-26T02:01:06.515Z,959.60
2022-11-26T02:01:18.550Z,959.62
2022-11-26T02:01:29.631Z,959.62
2022-11-26T02:01:40.536Z,959.63
2022-11-26T02:01:52.447Z,959.62
2022-11-26T02:02:03.502Z,959.61
2022-11-26T02:02:14.440Z,959.59
2022-11-26T02:02:25.472Z,959.60
2022-11-26T02:02:36.501Z,959.61
2022-11-26T02:02:48.444Z,959.62
2022-11-26T02:02:59.439Z,959.62
2022-11-26T02:03:10.426Z,959.61
2022-11-26T02:03:22.449Z,959.62
2022-11-26T02:03:33.454Z,959.63
2022-11-26T02:03:44.469Z,959.64
2022-11-26T02:03:56.470Z,959.64
2022-11-26T02:04:08.479Z,959.64
2022-11-26T02:04:19.389Z,959.65
2022-11-26T02:04:30.481Z,959.65
2022-11-26T02:04:41.486Z,959.65
2022-11-26T02:04:53.393Z,959.65
2022-11-26T02:05:04.418Z,959.66
2022-11-26T02:05:15.402Z,959.66
2022-11-26T02:05:26.405Z,959.66
2022-11-26T02:05:37.413Z,959.66
2022-11-26T02:05:49.416Z,959.65
2022-11-26T02:06:00.432Z,959.66
2022-11-26T02:06:11.454Z,959.66
2022-11-26T02:06:22.463Z,959.66
2022-11-26T02:06:34.468Z,959.66
2022-11-26T02:06:46.463Z,959.66
2022-11-26T02:06:57.474Z,959.67
2022-11-26T02:07:09.463Z,959.66
2022-11-26T02:07:20.458Z,959.66
2022-11-26T02:07:31.469Z,959.66
2022-11-26T02:07:43.471Z,959.67
2022-11-26T02:07:55.491Z,959.67
2022-11-26T02:08:07.415Z,959.68
2022-11-26T02:08:18.474Z,959.68
2022-11-26T02:08:29.464Z,959.68
2022-11-26T02:08:40.465Z,959.69
2022-11-26T02:08:51.474Z,959.69
2022-11-26T02:09:02.479Z,959.69
2022-11-26T02:09:13.382Z,959.69
2022-11-26T02:09:24.439Z,959.69
2022-11-26T02:09:35.471Z,959.69
2022-11-26T02:09:46.477Z,959.68
2022-11-26T02:09:58.498Z,959.67
2022-11-26T02:10:10.401Z,959.67
2022-11-26T02:10:21.404Z,959.67
2022-11-26T02:10:33.406Z,959.68
2022-11-26T02:10:45.405Z,959.66
2022-11-26T02:10:57.401Z,959.68
2022-11-26T02:11:08.409Z,959.68
2022-11-26T02:11:20.422Z,959.69
2022-11-26T02:11:31.423Z,959.70
2022-11-26T02:11:43.425Z,959.70
2022-11-26T02:11:54.428Z,959.69
2022-11-26T02:12:05.436Z,959.68
2022-11-26T02:12:17.446Z,959.68
2022-11-26T02:12:28.459Z,959.68
2022-11-26T02:12:39.464Z,959.69
2022-11-26T02:12:51.390Z,959.69
2022-11-26T02:13:02.394Z,959.70
2022-11-26T02:13:13.394Z,959.70
2022-11-26T02:13:25.401Z,959.69
2022-11-26T02:13:37.413Z,959.69
2022-11-26T02:13:48.426Z,959.68
2022-11-26T02:13:59.426Z,959.68
2022-11-26T02:14:11.430Z,959.68
2022-11-26T02:14:22.433Z,959.68
2022-11-26T02:14:33.442Z,959.67
2022-11-26T02:14:44.445Z,959.68
2022-11-26T02:14:56.448Z,959.68
2022-11-26T02:15:08.448Z,959.68
2022-11-26T02:15:20.457Z,959.67
2022-11-26T02:15:31.472Z,959.67
2022-11-26T02:15:43.480Z,959.68
2022-11-26T02:15:55.394Z,959.67
2022-11-26T02:16:07.417Z,959.68
2022-11-26T02:16:19.469Z,959.68
2022-11-26T02:16:30.536Z,959.68
2022-11-26T02:16:41.518Z,959.69
2022-11-26T02:16:53.456Z,959.69
2022-11-26T02:17:04.401Z,959.69
2022-11-26T02:17:15.409Z,959.70
2022-11-26T02:17:26.417Z,959.70
2022-11-26T02:17:38.425Z,959.70
2022-11-26T02:17:50.428Z,959.71
2022-11-26T02:18:01.448Z,959.70
2022-11-26T02:18:12.435Z,959.69
2022-11-26T02:18:23.449Z,959.70
2022-11-26T02:18:35.456Z,959.71
2022-11-26T02:18:46.473Z,959.71
2022-11-26T02:18:57.473Z,959.71
2022-11-26T02:19:08.482Z,959.72
2022-11-26T02:19:20.396Z,959.70
2022-11-26T02:19:31.403Z,959.71
2022-11-26T02:19:42.423Z,959.71
2022-11-26T02:19:54.431Z,959.71
2022-11-26T02:20:05.432Z,959.71
2022-11-26T02:20:16.437Z,959.72
2022-11-26T02:20:27.450Z,959.73
2022-11-26T02:20:39.458Z,959.73
2022-11-26T02:20:50.470Z,959.73
2022-11-26T02:21:02.472Z,959.73
2022-11-26T02:21:13.477Z,959.73
2022-11-26T02:21:24.479Z,959.74